PWSweather.com
Personal Weather Stations
Station Observations
ILOMBARD30
LodiIT 26900

LodiIT 26900

Lat: 45.2993, Lon: 9.5207

Elevation: 255

Station Type: Davis Vantege Pro2 Plus 24h

http://www.meteo-iw2gob.it

Latest ConditionsUpdated 3:05:01 PM GMT+01:01 Monday, Jun 26, 2017
Currently Today's Max Today's Min Today's Average
Temperature 86.8°F30.4°C 86.9°F30.5°C 68.2°F20.1°C 75.4°F24.1°C
Dew Point 70.2°F21.2°C 71.2°F21.8°C 63.2°F17.3°C 67.1°F19.5°C
Winds 2.3 mph E3.7 kmh E 6.9 mph E11.1 kmh E - 2.1 mph 3.4 kmh
Wind Gusts 9.2 mph14.8 kmh 9.2 mph14.8 kmh - -
Humidity 58% 92% 57% 77%
Pressure 29.81 in1009.5 mb 29.91 in1012.9 mb 29.81 in1009.5 mb -
Hour Temp Dew Point Humidity Winds Wind Gusts Pressure Precip Precip Rate Daily Precip Total
03:05 PM 86.8°F30.4°C 70.2°F21.2°C 58% 2.3 mph E3.7 kmh E 9.2 mph14.8 kmh 29.81 in1009.5 mb - 0.00 in0.0 mm 0.00 in0.0 mm
03:00 PM 86.4°F30.2°C 69.9°F21.1°C 58% 3.5 mph ESE5.6 kmh ESE 8.1 mph13.0 kmh 29.81 in1009.5 mb - 0.00 in0.0 mm 0.00 in0.0 mm
02:55 PM 85.9°F29.9°C 69.9°F21.1°C 59% 2.3 mph SE3.7 kmh SE 3.5 mph5.6 kmh 29.82 in1009.8 mb - 0.00 in0.0 mm 0.00 in0.0 mm
02:50 PM 85.9°F29.9°C 69.4°F20.8°C 58% 5.8 mph NE9.3 kmh NE 8.1 mph13.0 kmh 29.82 in1009.8 mb - 0.00 in0.0 mm 0.00 in0.0 mm
02:45 PM 86.2°F30.1°C 69.7°F20.9°C 58% 5.8 mph ESE9.3 kmh ESE 9.2 mph14.8 kmh 29.82 in1009.8 mb - 0.00 in0.0 mm 0.00 in0.0 mm
02:40 PM 86.3°F30.2°C 70.3°F21.3°C 59% 3.5 mph ESE5.6 kmh ESE 9.2 mph14.8 kmh 29.83 in1010.2 mb - 0.00 in0.0 mm 0.00 in0.0 mm
02:35 PM 86.6°F30.3°C 70.1°F21.2°C 58% 5.8 mph SE9.3 kmh SE 6.9 mph11.1 kmh 29.83 in1010.2 mb - 0.00 in0.0 mm 0.00 in0.0 mm
02:30 PM 86.9°F30.5°C 69.8°F21.0°C 57% 2.3 mph ENE3.7 kmh ENE 3.5 mph5.6 kmh 29.84 in1010.5 mb - 0.00 in0.0 mm 0.00 in0.0 mm
02:25 PM 86.5°F30.3°C 70.0°F21.1°C 58% 1.2 mph ESE1.9 kmh ESE 2.3 mph3.7 kmh 29.84 in1010.5 mb - 0.00 in0.0 mm 0.00 in0.0 mm
02:20 PM 86.5°F30.3°C 70.0°F21.1°C 58% 2.3 mph NE3.7 kmh NE 5.8 mph9.3 kmh 29.84 in1010.5 mb - 0.00 in0.0 mm 0.00 in0.0 mm
02:15 PM 86.9°F30.5°C 70.3°F21.3°C 58% 5.8 mph E9.3 kmh E 6.9 mph11.1 kmh 29.85 in1010.8 mb - 0.00 in0.0 mm 0.00 in0.0 mm
02:10 PM 86.5°F30.3°C 70.5°F21.4°C 59% 2.3 mph N3.7 kmh N 3.5 mph5.6 kmh 29.84 in1010.5 mb - 0.00 in0.0 mm 0.00 in0.0 mm
02:05 PM 86.2°F30.1°C 70.2°F21.2°C 59% 2.3 mph ESE3.7 kmh ESE 4.6 mph7.4 kmh 29.84 in1010.5 mb - 0.00 in0.0 mm 0.00 in0.0 mm
02:00 PM 86.8°F30.4°C 71.2°F21.8°C 60% 3.5 mph ENE5.6 kmh ENE 6.9 mph11.1 kmh 29.84 in1010.5 mb - 0.00 in0.0 mm 0.00 in0.0 mm
01:55 PM 86.5°F30.3°C 69.5°F20.8°C 57% 1.2 mph SSE1.9 kmh SSE 2.3 mph3.7 kmh 29.85 in1010.8 mb - 0.00 in0.0 mm 0.00 in0.0 mm
01:50 PM 85.5°F29.7°C 69.5°F20.8°C 59% 1.2 mph S1.9 kmh S 3.5 mph5.6 kmh 29.85 in1010.8 mb - 0.00 in0.0 mm 0.00 in0.0 mm
01:45 PM 85.1°F29.5°C 69.7°F20.9°C 60% 4.6 mph SE7.4 kmh SE 4.6 mph7.4 kmh 29.85 in1010.8 mb - 0.00 in0.0 mm 0.00 in0.0 mm
01:40 PM 85.1°F29.5°C 70.1°F21.2°C 61% 4.6 mph ESE7.4 kmh ESE 8.1 mph13.0 kmh 29.85 in1010.8 mb - 0.00 in0.0 mm 0.00 in0.0 mm
01:35 PM 85.2°F29.6°C 70.7°F21.5°C 62% 3.5 mph NE5.6 kmh NE 6.9 mph11.1 kmh 29.85 in1010.8 mb - 0.00 in0.0 mm 0.00 in0.0 mm
01:30 PM 84.7°F29.3°C 70.3°F21.3°C 62% 1.2 mph N1.9 kmh N 6.9 mph11.1 kmh 29.85 in1010.8 mb - 0.00 in0.0 mm 0.00 in0.0 mm
01:25 PM 84.8°F29.3°C 70.3°F21.3°C 62% 4.6 mph NE7.4 kmh NE 4.6 mph7.4 kmh 29.86 in1011.2 mb - 0.00 in0.0 mm 0.00 in0.0 mm
01:20 PM 85.7°F29.8°C 70.2°F21.2°C 60% 5.8 mph NE9.3 kmh NE 9.2 mph14.8 kmh 29.86 in1011.2 mb - 0.00 in0.0 mm 0.00 in0.0 mm
01:15 PM 86.3°F30.2°C 70.8°F21.6°C 60% 2.3 mph NE3.7 kmh NE 3.5 mph5.6 kmh 29.87 in1011.5 mb - 0.00 in0.0 mm 0.00 in0.0 mm
01:10 PM 85.9°F29.9°C 69.9°F21.1°C 59% 3.5 mph SE5.6 kmh SE 5.8 mph9.3 kmh 29.87 in1011.5 mb - 0.00 in0.0 mm 0.00 in0.0 mm
01:05 PM 85.5°F29.7°C 70.0°F21.1°C 60% 2.3 mph SE3.7 kmh SE 3.5 mph5.6 kmh 29.87 in1011.5 mb - 0.00 in0.0 mm 0.00 in0.0 mm
01:00 PM 85.6°F29.8°C 70.1°F21.2°C 60% 3.5 mph E5.6 kmh E 6.9 mph11.1 kmh 29.87 in1011.5 mb - 0.00 in0.0 mm 0.00 in0.0 mm
12:55 PM 85.2°F29.6°C 70.3°F21.3°C 61% 2.3 mph NNE3.7 kmh NNE 3.5 mph5.6 kmh 29.87 in1011.5 mb - 0.00 in0.0 mm 0.00 in0.0 mm
12:50 PM 84.7°F29.3°C 69.2°F20.7°C 60% 2.3 mph ESE3.7 kmh ESE 3.5 mph5.6 kmh 29.87 in1011.5 mb - 0.00 in0.0 mm 0.00 in0.0 mm
12:45 PM 84.9°F29.4°C 69.5°F20.8°C 60% 3.5 mph ESE5.6 kmh ESE 4.6 mph7.4 kmh 29.87 in1011.5 mb - 0.00 in0.0 mm 0.00 in0.0 mm
12:40 PM 84.8°F29.3°C 69.4°F20.8°C 60% 1.2 mph N1.9 kmh N 2.3 mph3.7 kmh 29.87 in1011.5 mb - 0.00 in0.0 mm 0.00 in0.0 mm
12:35 PM 84.8°F29.3°C 69.4°F20.8°C 60% 3.5 mph SSE5.6 kmh SSE 3.5 mph5.6 kmh 29.88 in1011.9 mb - 0.00 in0.0 mm 0.00 in0.0 mm
12:30 PM 84.7°F29.3°C 69.3°F20.7°C 60% 4.6 mph ESE7.4 kmh ESE 5.8 mph9.3 kmh 29.88 in1011.9 mb - 0.00 in0.0 mm 0.00 in0.0 mm
12:25 PM 85.0°F29.4°C 70.0°F21.1°C 61% 3.5 mph NE5.6 kmh NE 5.8 mph9.3 kmh 29.88 in1011.9 mb - 0.00 in0.0 mm 0.00 in0.0 mm
12:20 PM 85.4°F29.7°C 70.0°F21.1°C 60% 3.5 mph NE5.6 kmh NE 3.5 mph5.6 kmh 29.89 in1012.2 mb - 0.00 in0.0 mm 0.00 in0.0 mm
12:15 PM 85.7°F29.8°C 69.7°F20.9°C 59% 2.3 mph E3.7 kmh E 5.8 mph9.3 kmh 29.89 in1012.2 mb - 0.00 in0.0 mm 0.00 in0.0 mm
12:10 PM 85.7°F29.8°C 70.2°F21.2°C 60% 2.3 mph E3.7 kmh E 4.6 mph7.4 kmh 29.89 in1012.2 mb - 0.00 in0.0 mm 0.00 in0.0 mm
12:05 PM 85.4°F29.7°C 68.9°F20.5°C 58% 2.3 mph SE3.7 kmh SE 4.6 mph7.4 kmh 29.89 in1012.2 mb - 0.00 in0.0 mm 0.00 in0.0 mm
12:00 PM 85.3°F29.6°C 69.8°F21.0°C 60% 1.2 mph SE1.9 kmh SE 3.5 mph5.6 kmh 29.89 in1012.2 mb - 0.00 in0.0 mm 0.00 in0.0 mm
11:55 AM 84.9°F29.4°C 69.9°F21.1°C 61% 1.2 mph NNE1.9 kmh NNE 3.5 mph5.6 kmh 29.89 in1012.2 mb - 0.00 in0.0 mm 0.00 in0.0 mm
11:50 AM 84.5°F29.2°C 70.0°F21.1°C 62% 1.2 mph ENE1.9 kmh ENE 3.5 mph5.6 kmh 29.89 in1012.2 mb - 0.00 in0.0 mm 0.00 in0.0 mm
11:45 AM 84.3°F29.1°C 69.4°F20.8°C 61% 3.5 mph SE5.6 kmh SE 3.5 mph5.6 kmh 29.89 in1012.2 mb - 0.00 in0.0 mm 0.00 in0.0 mm
11:40 AM 83.7°F28.7°C 70.2°F21.2°C 64% 1.2 mph SSE1.9 kmh SSE 4.6 mph7.4 kmh 29.89 in1012.2 mb - 0.00 in0.0 mm 0.00 in0.0 mm
11:35 AM 82.6°F28.1°C 69.6°F20.9°C 65% 1.2 mph NE1.9 kmh NE 2.3 mph3.7 kmh 29.89 in1012.2 mb - 0.00 in0.0 mm 0.00 in0.0 mm
11:30 AM 82.3°F27.9°C 68.5°F20.3°C 63% 3.5 mph E5.6 kmh E 3.5 mph5.6 kmh 29.89 in1012.2 mb - 0.00 in0.0 mm 0.00 in0.0 mm
11:25 AM 83.3°F28.5°C 69.0°F20.6°C 62% 6.9 mph E11.1 kmh E 9.2 mph14.8 kmh 29.89 in1012.2 mb - 0.00 in0.0 mm 0.00 in0.0 mm
11:20 AM 83.2°F28.4°C 69.8°F21.0°C 64% 3.5 mph E5.6 kmh E 4.6 mph7.4 kmh 29.89 in1012.2 mb - 0.00 in0.0 mm 0.00 in0.0 mm
11:15 AM 82.5°F28.1°C 69.5°F20.8°C 65% 2.3 mph SE3.7 kmh SE 3.5 mph5.6 kmh 29.89 in1012.2 mb - 0.00 in0.0 mm 0.00 in0.0 mm
11:10 AM 82.2°F27.9°C 69.3°F20.7°C 65% 3.5 mph NNE5.6 kmh NNE 4.6 mph7.4 kmh 29.89 in1012.2 mb - 0.00 in0.0 mm 0.00 in0.0 mm
11:05 AM 82.4°F28.0°C 69.0°F20.6°C 64% 5.8 mph ENE9.3 kmh ENE 6.9 mph11.1 kmh 29.89 in1012.2 mb - 0.00 in0.0 mm 0.00 in0.0 mm
11:00 AM 82.9°F28.3°C 69.0°F20.6°C 63% 3.5 mph N5.6 kmh N 4.6 mph7.4 kmh 29.89 in1012.2 mb - 0.00 in0.0 mm 0.00 in0.0 mm
10:55 AM 82.7°F28.2°C 69.2°F20.7°C 64% 1.2 mph SSE1.9 kmh SSE 3.5 mph5.6 kmh 29.90 in1012.5 mb - 0.00 in0.0 mm 0.00 in0.0 mm
10:50 AM 82.3°F27.9°C 69.4°F20.8°C 65% 1.2 mph S1.9 kmh S 4.6 mph7.4 kmh 29.90 in1012.5 mb - 0.00 in0.0 mm 0.00 in0.0 mm
10:45 AM 82.2°F27.9°C 69.7°F20.9°C 66% 4.6 mph SE7.4 kmh SE 8.1 mph13.0 kmh 29.89 in1012.2 mb - 0.00 in0.0 mm 0.00 in0.0 mm
10:40 AM 81.7°F27.6°C 68.8°F20.4°C 65% Calm Calm 3.5 mph5.6 kmh 29.90 in1012.5 mb - 0.00 in0.0 mm 0.00 in0.0 mm
10:35 AM 81.4°F27.4°C 69.0°F20.6°C 66% 1.2 mph NE1.9 kmh NE 2.3 mph3.7 kmh 29.90 in1012.5 mb - 0.00 in0.0 mm 0.00 in0.0 mm
10:30 AM 81.2°F27.3°C 68.8°F20.4°C 66% 3.5 mph SSE5.6 kmh SSE 4.6 mph7.4 kmh 29.90 in1012.5 mb - 0.00 in0.0 mm 0.00 in0.0 mm
10:25 AM 80.9°F27.2°C 68.5°F20.3°C 66% 2.3 mph ESE3.7 kmh ESE 3.5 mph5.6 kmh 29.90 in1012.5 mb - 0.00 in0.0 mm 0.00 in0.0 mm
10:20 AM 81.0°F27.2°C 69.0°F20.6°C 67% 3.5 mph N5.6 kmh N 3.5 mph5.6 kmh 29.90 in1012.5 mb - 0.00 in0.0 mm 0.00 in0.0 mm
10:15 AM 80.7°F27.1°C 69.2°F20.7°C 68% 4.6 mph SE7.4 kmh SE 6.9 mph11.1 kmh 29.90 in1012.5 mb - 0.00 in0.0 mm 0.00 in0.0 mm
10:10 AM 80.1°F26.7°C 69.1°F20.6°C 69% 3.5 mph SE5.6 kmh SE 3.5 mph5.6 kmh 29.91 in1012.9 mb - 0.00 in0.0 mm 0.00 in0.0 mm
10:05 AM 79.4°F26.3°C 68.8°F20.4°C 70% 2.3 mph SE3.7 kmh SE 3.5 mph5.6 kmh 29.91 in1012.9 mb - 0.00 in0.0 mm 0.00 in0.0 mm
10:00 AM 79.1°F26.2°C 68.1°F20.1°C 69% 3.5 mph E5.6 kmh E 5.8 mph9.3 kmh 29.91 in1012.9 mb - 0.00 in0.0 mm 0.00 in0.0 mm
09:55 AM 79.4°F26.3°C 68.3°F20.2°C 69% 4.6 mph E7.4 kmh E 6.9 mph11.1 kmh 29.91 in1012.9 mb - 0.00 in0.0 mm 0.00 in0.0 mm
09:50 AM 79.4°F26.3°C 68.8°F20.4°C 70% 2.3 mph E3.7 kmh E 4.6 mph7.4 kmh 29.91 in1012.9 mb - 0.00 in0.0 mm 0.00 in0.0 mm
09:45 AM 79.1°F26.2°C 68.5°F20.3°C 70% 3.5 mph E5.6 kmh E 5.8 mph9.3 kmh 29.91 in1012.9 mb - 0.00 in0.0 mm 0.00 in0.0 mm
09:40 AM 78.8°F26.0°C 68.6°F20.3°C 71% 2.3 mph ESE3.7 kmh ESE 3.5 mph5.6 kmh 29.91 in1012.9 mb - 0.00 in0.0 mm 0.00 in0.0 mm
09:35 AM 78.4°F25.8°C 67.8°F19.9°C 70% 1.2 mph WSW1.9 kmh WSW 2.3 mph3.7 kmh 29.91 in1012.9 mb - 0.00 in0.0 mm 0.00 in0.0 mm
09:30 AM 78.0°F25.6°C 68.3°F20.2°C 72% 1.2 mph SE1.9 kmh SE 1.2 mph1.9 kmh 29.91 in1012.9 mb - 0.00 in0.0 mm 0.00 in0.0 mm
09:25 AM 77.6°F25.3°C 67.9°F19.9°C 72% 1.2 mph SE1.9 kmh SE 2.3 mph3.7 kmh 29.91 in1012.9 mb - 0.00 in0.0 mm 0.00 in0.0 mm
09:20 AM 77.3°F25.2°C 67.9°F19.9°C 73% 3.5 mph SE5.6 kmh SE 3.5 mph5.6 kmh 29.91 in1012.9 mb - 0.00 in0.0 mm 0.00 in0.0 mm
09:15 AM 76.9°F24.9°C 67.6°F19.8°C 73% 2.3 mph SE3.7 kmh SE 3.5 mph5.6 kmh 29.91 in1012.9 mb - 0.00 in0.0 mm 0.00 in0.0 mm
09:10 AM 76.6°F24.8°C 67.7°F19.8°C 74% 3.5 mph SE5.6 kmh SE 4.6 mph7.4 kmh 29.91 in1012.9 mb - 0.00 in0.0 mm 0.00 in0.0 mm
09:05 AM 76.2°F24.6°C 68.0°F20.0°C 76% 3.5 mph E5.6 kmh E 4.6 mph7.4 kmh 29.91 in1012.9 mb - 0.00 in0.0 mm 0.00 in0.0 mm
09:00 AM 75.7°F24.3°C 67.3°F19.6°C 75% 2.3 mph SE3.7 kmh SE 3.5 mph5.6 kmh 29.91 in1012.9 mb - 0.00 in0.0 mm 0.00 in0.0 mm
08:55 AM 75.7°F24.3°C 67.2°F19.6°C 75% 4.6 mph E7.4 kmh E 6.9 mph11.1 kmh 29.91 in1012.9 mb - 0.00 in0.0 mm 0.00 in0.0 mm
08:50 AM 75.4°F24.1°C 67.7°F19.8°C 77% 5.8 mph E9.3 kmh E 8.1 mph13.0 kmh 29.91 in1012.9 mb - 0.00 in0.0 mm 0.00 in0.0 mm
08:45 AM 75.1°F23.9°C 67.4°F19.7°C 77% 4.6 mph NE7.4 kmh NE 6.9 mph11.1 kmh 29.90 in1012.5 mb - 0.00 in0.0 mm 0.00 in0.0 mm
08:40 AM 74.6°F23.7°C 67.7°F19.8°C 79% 2.3 mph ESE3.7 kmh ESE 8.1 mph13.0 kmh 29.90 in1012.5 mb - 0.00 in0.0 mm 0.00 in0.0 mm
08:35 AM 74.3°F23.5°C 67.4°F19.7°C 79% 3.5 mph E5.6 kmh E 9.2 mph14.8 kmh 29.90 in1012.5 mb - 0.00 in0.0 mm 0.00 in0.0 mm
08:30 AM 74.0°F23.3°C 67.1°F19.5°C 79% 4.6 mph E7.4 kmh E 6.9 mph11.1 kmh 29.90 in1012.5 mb - 0.00 in0.0 mm 0.00 in0.0 mm
08:25 AM 73.7°F23.2°C 67.9°F19.9°C 82% 2.3 mph NE3.7 kmh NE 5.8 mph9.3 kmh 29.91 in1012.9 mb - 0.00 in0.0 mm 0.00 in0.0 mm
08:20 AM 73.4°F23.0°C 67.2°F19.6°C 81% 2.3 mph NE3.7 kmh NE 3.5 mph5.6 kmh 29.90 in1012.5 mb - 0.00 in0.0 mm 0.00 in0.0 mm
08:15 AM 73.3°F22.9°C 67.4°F19.7°C 82% 4.6 mph E7.4 kmh E 5.8 mph9.3 kmh 29.90 in1012.5 mb - 0.00 in0.0 mm 0.00 in0.0 mm
08:10 AM 73.0°F22.8°C 67.5°F19.7°C 83% 4.6 mph E7.4 kmh E 4.6 mph7.4 kmh 29.90 in1012.5 mb - 0.00 in0.0 mm 0.00 in0.0 mm
08:05 AM 72.8°F22.7°C 67.3°F19.6°C 83% 4.6 mph E7.4 kmh E 4.6 mph7.4 kmh 29.90 in1012.5 mb - 0.00 in0.0 mm 0.00 in0.0 mm
08:00 AM 72.7°F22.6°C 67.6°F19.8°C 84% 3.5 mph ENE5.6 kmh ENE 6.9 mph11.1 kmh 29.91 in1012.9 mb - 0.00 in0.0 mm 0.00 in0.0 mm
07:55 AM 72.6°F22.6°C 67.5°F19.7°C 84% 4.6 mph E7.4 kmh E 4.6 mph7.4 kmh 29.91 in1012.9 mb - 0.00 in0.0 mm 0.00 in0.0 mm
07:50 AM 72.3°F22.4°C 67.5°F19.7°C 85% 1.2 mph E1.9 kmh E 4.6 mph7.4 kmh 29.91 in1012.9 mb - 0.00 in0.0 mm 0.00 in0.0 mm
07:45 AM 72.1°F22.3°C 67.3°F19.6°C 85% 1.2 mph E1.9 kmh E 3.5 mph5.6 kmh 29.91 in1012.9 mb - 0.00 in0.0 mm 0.00 in0.0 mm
07:40 AM 71.9°F22.2°C 67.5°F19.7°C 86% 2.3 mph E3.7 kmh E 5.8 mph9.3 kmh 29.91 in1012.9 mb - 0.00 in0.0 mm 0.00 in0.0 mm
07:35 AM 71.8°F22.1°C 67.4°F19.7°C 86% 3.5 mph ENE5.6 kmh ENE 5.8 mph9.3 kmh 29.91 in1012.9 mb - 0.00 in0.0 mm 0.00 in0.0 mm
07:30 AM 71.7°F22.1°C 67.3°F19.6°C 86% 3.5 mph NE5.6 kmh NE 3.5 mph5.6 kmh 29.91 in1012.9 mb - 0.00 in0.0 mm 0.00 in0.0 mm
07:25 AM 71.5°F21.9°C 67.5°F19.7°C 87% 2.3 mph NE3.7 kmh NE 3.5 mph5.6 kmh 29.91 in1012.9 mb - 0.00 in0.0 mm 0.00 in0.0 mm
07:20 AM 71.4°F21.9°C 67.0°F19.4°C 86% 3.5 mph ENE5.6 kmh ENE 4.6 mph7.4 kmh 29.91 in1012.9 mb - 0.00 in0.0 mm 0.00 in0.0 mm
07:15 AM 71.3°F21.8°C 67.2°F19.6°C 87% 2.3 mph ENE3.7 kmh ENE 4.6 mph7.4 kmh 29.91 in1012.9 mb - 0.00 in0.0 mm 0.00 in0.0 mm
07:10 AM 71.2°F21.8°C 67.5°F19.7°C 88% 2.3 mph ENE3.7 kmh ENE 4.6 mph7.4 kmh 29.91 in1012.9 mb - 0.00 in0.0 mm 0.00 in0.0 mm
07:05 AM 71.1°F21.7°C 67.4°F19.7°C 88% 1.2 mph NE1.9 kmh NE 3.5 mph5.6 kmh 29.90 in1012.5 mb - 0.00 in0.0 mm 0.00 in0.0 mm
07:00 AM 70.9°F21.6°C 67.2°F19.6°C 88% 2.3 mph ENE3.7 kmh ENE 3.5 mph5.6 kmh 29.90 in1012.5 mb - 0.00 in0.0 mm 0.00 in0.0 mm
06:55 AM 70.8°F21.6°C 67.1°F19.5°C 88% 2.3 mph E3.7 kmh E 4.6 mph7.4 kmh 29.90 in1012.5 mb - 0.00 in0.0 mm 0.00 in0.0 mm
06:50 AM 70.7°F21.5°C 67.0°F19.4°C 88% 2.3 mph E3.7 kmh E 3.5 mph5.6 kmh 29.90 in1012.5 mb - 0.00 in0.0 mm 0.00 in0.0 mm
06:45 AM 70.6°F21.4°C 66.9°F19.4°C 88% 2.3 mph NE3.7 kmh NE 2.3 mph3.7 kmh 29.90 in1012.5 mb - 0.00 in0.0 mm 0.00 in0.0 mm
06:40 AM 70.6°F21.4°C 67.2°F19.6°C 89% 2.3 mph E3.7 kmh E 3.5 mph5.6 kmh 29.89 in1012.2 mb - 0.00 in0.0 mm 0.00 in0.0 mm
06:35 AM 70.5°F21.4°C 67.1°F19.5°C 89% 1.2 mph E1.9 kmh E 3.5 mph5.6 kmh 29.89 in1012.2 mb - 0.00 in0.0 mm 0.00 in0.0 mm
06:30 AM 70.3°F21.3°C 66.9°F19.4°C 89% 2.3 mph E3.7 kmh E 3.5 mph5.6 kmh 29.89 in1012.2 mb - 0.00 in0.0 mm 0.00 in0.0 mm
06:25 AM 70.1°F21.2°C 67.0°F19.4°C 90% 2.3 mph ENE3.7 kmh ENE 3.5 mph5.6 kmh 29.89 in1012.2 mb - 0.00 in0.0 mm 0.00 in0.0 mm
06:20 AM 69.8°F21.0°C 66.7°F19.3°C 90% Calm Calm 1.2 mph1.9 kmh 29.89 in1012.2 mb - 0.00 in0.0 mm 0.00 in0.0 mm
06:15 AM 69.7°F20.9°C 66.6°F19.2°C 90% 2.3 mph E3.7 kmh E 4.6 mph7.4 kmh 29.89 in1012.2 mb - 0.00 in0.0 mm 0.00 in0.0 mm
06:10 AM 69.5°F20.8°C 66.4°F19.1°C 90% 2.3 mph ENE3.7 kmh ENE 3.5 mph5.6 kmh 29.89 in1012.2 mb - 0.00 in0.0 mm 0.00 in0.0 mm
06:05 AM 69.3°F20.7°C 66.2°F19.0°C 90% 1.2 mph E1.9 kmh E 6.9 mph11.1 kmh 29.89 in1012.2 mb - 0.00 in0.0 mm 0.00 in0.0 mm
06:00 AM 69.1°F20.6°C 66.1°F18.9°C 90% 3.5 mph E5.6 kmh E 4.6 mph7.4 kmh 29.89 in1012.2 mb - 0.00 in0.0 mm 0.00 in0.0 mm
05:55 AM 69.1°F20.6°C 66.0°F18.9°C 90% 2.3 mph E3.7 kmh E 4.6 mph7.4 kmh 29.89 in1012.2 mb - 0.00 in0.0 mm 0.00 in0.0 mm
05:50 AM 69.0°F20.6°C 66.3°F19.1°C 91% 1.2 mph E1.9 kmh E 2.3 mph3.7 kmh 29.89 in1012.2 mb - 0.00 in0.0 mm 0.00 in0.0 mm
05:45 AM 68.9°F20.5°C 66.2°F19.0°C 91% 1.2 mph E1.9 kmh E 2.3 mph3.7 kmh 29.89 in1012.2 mb - 0.00 in0.0 mm 0.00 in0.0 mm
05:40 AM 68.8°F20.4°C 66.0°F18.9°C 91% 1.2 mph E1.9 kmh E 2.3 mph3.7 kmh 29.89 in1012.2 mb - 0.00 in0.0 mm 0.00 in0.0 mm
05:35 AM 68.7°F20.4°C 65.9°F18.8°C 91% Calm Calm 1.2 mph1.9 kmh 29.89 in1012.2 mb - 0.00 in0.0 mm 0.00 in0.0 mm
05:30 AM 68.6°F20.3°C 65.9°F18.8°C 91% 1.2 mph E1.9 kmh E 2.3 mph3.7 kmh 29.89 in1012.2 mb - 0.00 in0.0 mm 0.00 in0.0 mm
05:25 AM 68.6°F20.3°C 65.9°F18.8°C 91% 1.2 mph E1.9 kmh E 3.5 mph5.6 kmh 29.89 in1012.2 mb - 0.00 in0.0 mm 0.00 in0.0 mm
05:20 AM 68.5°F20.3°C 65.8°F18.8°C 91% 1.2 mph E1.9 kmh E 2.3 mph3.7 kmh 29.89 in1012.2 mb - 0.00 in0.0 mm 0.00 in0.0 mm
05:15 AM 68.4°F20.2°C 66.0°F18.9°C 92% Calm Calm 3.5 mph5.6 kmh 29.89 in1012.2 mb - 0.00 in0.0 mm 0.00 in0.0 mm
05:10 AM 68.3°F20.2°C 65.6°F18.7°C 91% Calm Calm 2.3 mph3.7 kmh 29.88 in1011.9 mb - 0.00 in0.0 mm 0.00 in0.0 mm
05:05 AM 68.3°F20.2°C 65.2°F18.4°C 90% Calm Calm 2.3 mph3.7 kmh 29.88 in1011.9 mb - 0.00 in0.0 mm 0.00 in0.0 mm
05:00 AM 68.2°F20.1°C 65.2°F18.4°C 90% Calm Calm -- 29.88 in1011.9 mb - 0.00 in0.0 mm 0.00 in0.0 mm
04:55 AM 68.3°F20.2°C 65.3°F18.5°C 90% Calm Calm -- 29.88 in1011.9 mb - 0.00 in0.0 mm 0.00 in0.0 mm
04:50 AM 68.3°F20.2°C 65.3°F18.5°C 90% Calm Calm 1.2 mph1.9 kmh 29.88 in1011.9 mb - 0.00 in0.0 mm 0.00 in0.0 mm
04:45 AM 68.4°F20.2°C 65.4°F18.6°C 90% 1.2 mph NE1.9 kmh NE 2.3 mph3.7 kmh 29.88 in1011.9 mb - 0.00 in0.0 mm 0.00 in0.0 mm
04:40 AM 68.4°F20.2°C 65.4°F18.6°C 90% 1.2 mph NE1.9 kmh NE 2.3 mph3.7 kmh 29.88 in1011.9 mb - 0.00 in0.0 mm 0.00 in0.0 mm
04:35 AM 68.5°F20.3°C 65.4°F18.6°C 90% 1.2 mph ENE1.9 kmh ENE 2.3 mph3.7 kmh 29.88 in1011.9 mb - 0.00 in0.0 mm 0.00 in0.0 mm
04:30 AM 68.5°F20.3°C 65.4°F18.6°C 90% 1.2 mph ENE1.9 kmh ENE 2.3 mph3.7 kmh 29.88 in1011.9 mb - 0.00 in0.0 mm 0.00 in0.0 mm
04:25 AM 68.5°F20.3°C 65.4°F18.6°C 90% Calm Calm -- 29.88 in1011.9 mb - 0.00 in0.0 mm 0.00 in0.0 mm
04:20 AM 68.6°F20.3°C 65.2°F18.4°C 89% Calm Calm -- 29.88 in1011.9 mb - 0.00 in0.0 mm 0.00 in0.0 mm
04:15 AM 68.6°F20.3°C 65.2°F18.4°C 89% Calm Calm -- 29.88 in1011.9 mb - 0.00 in0.0 mm 0.00 in0.0 mm
04:10 AM 68.7°F20.4°C 65.3°F18.5°C 89% 1.2 mph ENE1.9 kmh ENE 2.3 mph3.7 kmh 29.87 in1011.5 mb - 0.00 in0.0 mm 0.00 in0.0 mm
04:05 AM 68.7°F20.4°C 65.3°F18.5°C 89% 1.2 mph E1.9 kmh E 2.3 mph3.7 kmh 29.87 in1011.5 mb - 0.00 in0.0 mm 0.00 in0.0 mm
04:00 AM 68.7°F20.4°C 65.3°F18.5°C 89% Calm Calm 1.2 mph1.9 kmh 29.87 in1011.5 mb - 0.00 in0.0 mm 0.00 in0.0 mm
03:55 AM 68.7°F20.4°C 65.3°F18.5°C 89% Calm Calm 2.3 mph3.7 kmh 29.87 in1011.5 mb - 0.00 in0.0 mm 0.00 in0.0 mm
03:50 AM 68.7°F20.4°C 65.3°F18.5°C 89% 1.2 mph ESE1.9 kmh ESE 3.5 mph5.6 kmh 29.87 in1011.5 mb - 0.00 in0.0 mm 0.00 in0.0 mm
03:45 AM 68.7°F20.4°C 65.3°F18.5°C 89% 1.2 mph ESE1.9 kmh ESE 3.5 mph5.6 kmh 29.87 in1011.5 mb - 0.00 in0.0 mm 0.00 in0.0 mm
03:40 AM 68.7°F20.4°C 65.0°F18.3°C 88% 1.2 mph ESE1.9 kmh ESE 2.3 mph3.7 kmh 29.87 in1011.5 mb - 0.00 in0.0 mm 0.00 in0.0 mm
03:35 AM 68.7°F20.4°C 65.0°F18.3°C 88% 1.2 mph E1.9 kmh E 2.3 mph3.7 kmh 29.87 in1011.5 mb - 0.00 in0.0 mm 0.00 in0.0 mm
03:30 AM 68.7°F20.4°C 65.0°F18.3°C 88% 1.2 mph E1.9 kmh E 2.3 mph3.7 kmh 29.87 in1011.5 mb - 0.00 in0.0 mm 0.00 in0.0 mm
03:25 AM 68.7°F20.4°C 65.0°F18.3°C 88% 2.3 mph E3.7 kmh E 4.6 mph7.4 kmh 29.87 in1011.5 mb - 0.00 in0.0 mm 0.00 in0.0 mm
03:20 AM 68.8°F20.4°C 65.1°F18.4°C 88% 2.3 mph E3.7 kmh E 3.5 mph5.6 kmh 29.87 in1011.5 mb - 0.00 in0.0 mm 0.00 in0.0 mm
03:15 AM 68.8°F20.4°C 65.1°F18.4°C 88% 1.2 mph NE1.9 kmh NE 2.3 mph3.7 kmh 29.87 in1011.5 mb - 0.00 in0.0 mm 0.00 in0.0 mm
03:10 AM 68.8°F20.4°C 64.8°F18.2°C 87% 2.3 mph NE3.7 kmh NE 3.5 mph5.6 kmh 29.87 in1011.5 mb - 0.00 in0.0 mm 0.00 in0.0 mm
03:05 AM 68.8°F20.4°C 64.8°F18.2°C 87% 1.2 mph NE1.9 kmh NE 3.5 mph5.6 kmh 29.87 in1011.5 mb - 0.00 in0.0 mm 0.00 in0.0 mm
03:00 AM 68.8°F20.4°C 64.8°F18.2°C 87% 1.2 mph ENE1.9 kmh ENE 2.3 mph3.7 kmh 29.87 in1011.5 mb - 0.00 in0.0 mm 0.00 in0.0 mm
02:55 AM 68.8°F20.4°C 64.4°F18.0°C 86% Calm Calm 2.3 mph3.7 kmh 29.87 in1011.5 mb - 0.00 in0.0 mm 0.00 in0.0 mm
02:50 AM 68.8°F20.4°C 64.4°F18.0°C 86% 1.2 mph NE1.9 kmh NE 2.3 mph3.7 kmh 29.87 in1011.5 mb - 0.00 in0.0 mm 0.00 in0.0 mm
02:45 AM 68.8°F20.4°C 64.4°F18.0°C 86% 2.3 mph NE3.7 kmh NE 3.5 mph5.6 kmh 29.87 in1011.5 mb - 0.00 in0.0 mm 0.00 in0.0 mm
02:40 AM 68.9°F20.5°C 64.2°F17.9°C 85% 2.3 mph NE3.7 kmh NE 2.3 mph3.7 kmh 29.87 in1011.5 mb - 0.00 in0.0 mm 0.00 in0.0 mm
02:35 AM 68.9°F20.5°C 64.2°F17.9°C 85% 1.2 mph NE1.9 kmh NE 3.5 mph5.6 kmh 29.87 in1011.5 mb - 0.00 in0.0 mm 0.00 in0.0 mm
02:30 AM 68.9°F20.5°C 64.2°F17.9°C 85% 2.3 mph NE3.7 kmh NE 2.3 mph3.7 kmh 29.87 in1011.5 mb - 0.00 in0.0 mm 0.00 in0.0 mm
02:25 AM 68.9°F20.5°C 64.2°F17.9°C 85% 2.3 mph NE3.7 kmh NE 3.5 mph5.6 kmh 29.87 in1011.5 mb - 0.00 in0.0 mm 0.00 in0.0 mm
02:20 AM 68.9°F20.5°C 64.2°F17.9°C 85% 1.2 mph NNE1.9 kmh NNE 2.3 mph3.7 kmh 29.87 in1011.5 mb - 0.00 in0.0 mm 0.00 in0.0 mm
02:15 AM 68.9°F20.5°C 63.9°F17.7°C 84% Calm Calm -- 29.87 in1011.5 mb - 0.00 in0.0 mm 0.00 in0.0 mm
02:10 AM 68.9°F20.5°C 63.9°F17.7°C 84% Calm Calm -- 29.87 in1011.5 mb - 0.00 in0.0 mm 0.00 in0.0 mm
02:05 AM 69.0°F20.6°C 64.0°F17.8°C 84% Calm Calm 1.2 mph1.9 kmh 29.87 in1011.5 mb - 0.00 in0.0 mm 0.00 in0.0 mm
02:00 AM 68.9°F20.5°C 63.9°F17.7°C 84% Calm Calm -- 29.87 in1011.5 mb - 0.00 in0.0 mm 0.00 in0.0 mm
01:55 AM 68.9°F20.5°C 63.9°F17.7°C 84% 1.2 mph NNE1.9 kmh NNE 2.3 mph3.7 kmh 29.87 in1011.5 mb - 0.00 in0.0 mm 0.00 in0.0 mm
01:50 AM 69.0°F20.6°C 64.0°F17.8°C 84% Calm Calm -- 29.87 in1011.5 mb - 0.00 in0.0 mm 0.00 in0.0 mm
01:45 AM 69.0°F20.6°C 63.6°F17.6°C 83% Calm Calm -- 29.87 in1011.5 mb - 0.00 in0.0 mm 0.00 in0.0 mm
01:40 AM 69.0°F20.6°C 63.6°F17.6°C 83% 1.2 mph NNE1.9 kmh NNE 1.2 mph1.9 kmh 29.87 in1011.5 mb - 0.00 in0.0 mm 0.00 in0.0 mm
01:35 AM 69.0°F20.6°C 63.6°F17.6°C 83% 1.2 mph NNE1.9 kmh NNE 2.3 mph3.7 kmh 29.87 in1011.5 mb - 0.00 in0.0 mm 0.00 in0.0 mm
01:30 AM 69.0°F20.6°C 63.6°F17.6°C 83% 1.2 mph NE1.9 kmh NE 2.3 mph3.7 kmh 29.87 in1011.5 mb - 0.00 in0.0 mm 0.00 in0.0 mm
01:25 AM 69.0°F20.6°C 63.6°F17.6°C 83% Calm Calm 1.2 mph1.9 kmh 29.86 in1011.2 mb - 0.00 in0.0 mm 0.00 in0.0 mm
01:20 AM 69.0°F20.6°C 63.6°F17.6°C 83% 1.2 mph NE1.9 kmh NE 1.2 mph1.9 kmh 29.86 in1011.2 mb - 0.00 in0.0 mm 0.00 in0.0 mm
01:15 AM 69.0°F20.6°C 63.6°F17.6°C 83% 1.2 mph NE1.9 kmh NE 2.3 mph3.7 kmh 29.87 in1011.5 mb - 0.00 in0.0 mm 0.00 in0.0 mm
01:10 AM 69.0°F20.6°C 63.3°F17.4°C 82% 1.2 mph NE1.9 kmh NE 2.3 mph3.7 kmh 29.86 in1011.2 mb - 0.00 in0.0 mm 0.00 in0.0 mm
01:05 AM 69.0°F20.6°C 63.3°F17.4°C 82% 1.2 mph NE1.9 kmh NE 2.3 mph3.7 kmh 29.86 in1011.2 mb - 0.00 in0.0 mm 0.00 in0.0 mm
01:00 AM 69.2°F20.7°C 63.5°F17.5°C 82% 1.2 mph NE1.9 kmh NE 2.3 mph3.7 kmh 29.87 in1011.5 mb - 0.00 in0.0 mm 0.00 in0.0 mm
12:55 AM 69.3°F20.7°C 63.6°F17.6°C 82% 1.2 mph NE1.9 kmh NE 2.3 mph3.7 kmh 29.86 in1011.2 mb - 0.00 in0.0 mm 0.00 in0.0 mm
12:50 AM 69.5°F20.8°C 63.7°F17.6°C 82% 2.3 mph NE3.7 kmh NE 3.5 mph5.6 kmh 29.86 in1011.2 mb - 0.00 in0.0 mm 0.00 in0.0 mm
12:45 AM 69.6°F20.9°C 63.5°F17.5°C 81% Calm Calm -- 29.86 in1011.2 mb - 0.00 in0.0 mm 0.00 in0.0 mm
12:40 AM 69.8°F21.0°C 63.7°F17.6°C 81% Calm Calm -- 29.86 in1011.2 mb - 0.00 in0.0 mm 0.00 in0.0 mm
12:35 AM 70.0°F21.1°C 63.5°F17.5°C 80% Calm Calm -- 29.86 in1011.2 mb - 0.00 in0.0 mm 0.00 in0.0 mm
12:30 AM 70.2°F21.2°C 63.8°F17.7°C 80% 1.2 mph NE1.9 kmh NE 2.3 mph3.7 kmh 29.85 in1010.8 mb - 0.00 in0.0 mm 0.00 in0.0 mm
12:25 AM 70.4°F21.3°C 63.9°F17.7°C 80% 1.2 mph NE1.9 kmh NE 2.3 mph3.7 kmh 29.85 in1010.8 mb - 0.00 in0.0 mm 0.00 in0.0 mm
12:20 AM 70.6°F21.4°C 63.4°F17.4°C 78% Calm Calm 1.2 mph1.9 kmh 29.85 in1010.8 mb - 0.00 in0.0 mm 0.00 in0.0 mm
12:15 AM 70.7°F21.5°C 63.5°F17.5°C 78% Calm Calm -- 29.86 in1011.2 mb - 0.00 in0.0 mm 0.00 in0.0 mm
12:10 AM 70.8°F21.6°C 63.2°F17.3°C 77% Calm Calm -- 29.86 in1011.2 mb - 0.00 in0.0 mm 0.00 in0.0 mm
12:05 AM 70.9°F21.6°C 63.3°F17.4°C 77% Calm Calm 1.2 mph1.9 kmh 29.86 in1011.2 mb - 0.00 in0.0 mm 0.00 in0.0 mm
12:00 AM 71.1°F21.7°C 63.5°F17.5°C 77% 1.2 mph E1.9 kmh E 3.5 mph5.6 kmh 29.86 in1011.2 mb - 0.00 in0.0 mm 0.00 in0.0 mm